sensor_id;sensor_type;location;lat;lon;timestamp;temperature;humidity
7708;DHT22;3896;48.758;8.888;2023-05-02T00:00:08;9.80;99.90
7708;DHT22;3896;48.758;8.888;2023-05-02T00:02:33;9.70;99.90
7708;DHT22;3896;48.758;8.888;2023-05-02T00:04:59;9.70;99.90
7708;DHT22;3896;48.758;8.888;2023-05-02T00:07:25;9.70;99.90
7708;DHT22;3896;48.758;8.888;2023-05-02T00:09:51;9.60;99.90
7708;DHT22;3896;48.758;8.888;2023-05-02T00:12:17;9.60;99.90
7708;DHT22;3896;48.758;8.888;2023-05-02T00:14:42;9.60;99.90
7708;DHT22;3896;48.758;8.888;2023-05-02T00:17:08;9.50;99.90
7708;DHT22;3896;48.758;8.888;2023-05-02T00:19:39;9.50;99.90
7708;DHT22;3896;48.758;8.888;2023-05-02T00:22:05;9.40;99.90
7708;DHT22;3896;48.758;8.888;2023-05-02T00:24:30;9.40;99.90
7708;DHT22;3896;48.758;8.888;2023-05-02T00:26:56;9.40;99.90
7708;DHT22;3896;48.758;8.888;2023-05-02T00:29:21;9.30;99.90
7708;DHT22;3896;48.758;8.888;2023-05-02T00:31:47;9.20;99.90
7708;DHT22;3896;48.758;8.888;2023-05-02T00:34:12;9.20;99.90
7708;DHT22;3896;48.758;8.888;2023-05-02T00:36:38;9.20;99.90
7708;DHT22;3896;48.758;8.888;2023-05-02T00:39:03;9.10;99.90
7708;DHT22;3896;48.758;8.888;2023-05-02T00:41:29;9.10;99.90
7708;DHT22;3896;48.758;8.888;2023-05-02T00:43:55;9.00;99.90
7708;DHT22;3896;48.758;8.888;2023-05-02T00:46:22;9.00;99.90
7708;DHT22;3896;48.758;8.888;2023-05-02T00:48:47;9.00;99.90
7708;DHT22;3896;48.758;8.888;2023-05-02T00:51:13;8.90;99.90
7708;DHT22;3896;48.758;8.888;2023-05-02T00:53:39;8.90;99.90
7708;DHT22;3896;48.758;8.888;2023-05-02T00:56:05;8.80;99.90
7708;DHT22;3896;48.758;8.888;2023-05-02T00:58:31;8.80;99.90
7708;DHT22;3896;48.758;8.888;2023-05-02T01:14:46;8.50;99.90
7708;DHT22;3896;48.758;8.888;2023-05-02T01:17:14;8.50;99.90
7708;DHT22;3896;48.758;8.888;2023-05-02T01:19:44;8.50;99.90
7708;DHT22;3896;48.758;8.888;2023-05-02T01:22:12;8.40;99.90
7708;DHT22;3896;48.758;8.888;2023-05-02T01:24:51;8.40;99.90
7708;DHT22;3896;48.758;8.888;2023-05-02T01:28:04;8.30;99.90
7708;DHT22;3896;48.758;8.888;2023-05-02T01:30:36;8.30;99.90
7708;DHT22;3896;48.758;8.888;2023-05-02T01:33:03;8.20;99.90
7708;DHT22;3896;48.758;8.888;2023-05-02T01:35:31;8.20;99.90
7708;DHT22;3896;48.758;8.888;2023-05-02T01:37:58;8.20;99.90
7708;DHT22;3896;48.758;8.888;2023-05-02T01:40:25;8.20;99.90
7708;DHT22;3896;48.758;8.888;2023-05-02T01:42:52;8.20;99.90
7708;DHT22;3896;48.758;8.888;2023-05-02T01:45:20;8.20;99.90
7708;DHT22;3896;48.758;8.888;2023-05-02T01:47:46;8.10;99.90
7708;DHT22;3896;48.758;8.888;2023-05-02T01:50:16;8.10;99.90
7708;DHT22;3896;48.758;8.888;2023-05-02T01:52:44;8.10;99.90
7708;DHT22;3896;48.758;8.888;2023-05-02T01:55:13;8.00;99.90
7708;DHT22;3896;48.758;8.888;2023-05-02T01:57:41;8.00;99.90
7708;DHT22;3896;48.758;8.888;2023-05-02T02:00:08;8.00;99.90
7708;DHT22;3896;48.758;8.888;2023-05-02T02:02:35;8.00;99.90
7708;DHT22;3896;48.758;8.888;2023-05-02T02:05:03;8.00;99.90
7708;DHT22;3896;48.758;8.888;2023-05-02T02:07:30;8.00;99.90
7708;DHT22;3896;48.758;8.888;2023-05-02T02:09:56;8.00;99.90
7708;DHT22;3896;48.758;8.888;2023-05-02T02:12:25;8.00;99.90
7708;DHT22;3896;48.758;8.888;2023-05-02T02:14:59;7.90;99.90
7708;DHT22;3896;48.758;8.888;2023-05-02T02:17:40;7.90;99.90
7708;DHT22;3896;48.758;8.888;2023-05-02T02:20:09;7.90;99.90
7708;DHT22;3896;48.758;8.888;2023-05-02T02:22:37;7.90;99.90
7708;DHT22;3896;48.758;8.888;2023-05-02T02:25:06;7.90;99.90
7708;DHT22;3896;48.758;8.888;2023-05-02T02:27:32;7.80;99.90
7708;DHT22;3896;48.758;8.888;2023-05-02T02:29:58;7.80;99.90
7708;DHT22;3896;48.758;8.888;2023-05-02T02:32:23;7.80;99.90
7708;DHT22;3896;48.758;8.888;2023-05-02T02:34:49;7.80;99.90
7708;DHT22;3896;48.758;8.888;2023-05-02T02:37:20;7.80;99.90
7708;DHT22;3896;48.758;8.888;2023-05-02T02:42:44;7.70;99.90
7708;DHT22;3896;48.758;8.888;2023-05-02T02:47:47;7.70;99.90
7708;DHT22;3896;48.758;8.888;2023-05-02T02:50:22;7.60;99.90
7708;DHT22;3896;48.758;8.888;2023-05-02T02:53:01;7.60;99.90
7708;DHT22;3896;48.758;8.888;2023-05-02T02:55:39;7.60;99.90
7708;DHT22;3896;48.758;8.888;2023-05-02T02:58:20;7.60;99.90
7708;DHT22;3896;48.758;8.888;2023-05-02T03:00:51;7.50;99.90
7708;DHT22;3896;48.758;8.888;2023-05-02T03:03:18;7.50;99.90
7708;DHT22;3896;48.758;8.888;2023-05-02T03:05:45;7.50;99.90
7708;DHT22;3896;48.758;8.888;2023-05-02T03:08:10;7.50;99.90
7708;DHT22;3896;48.758;8.888;2023-05-02T03:10:36;7.50;99.90
7708;DHT22;3896;48.758;8.888;2023-05-02T03:13:01;7.50;99.90
7708;DHT22;3896;48.758;8.888;2023-05-02T03:16:17;7.40;99.90
7708;DHT22;3896;48.758;8.888;2023-05-02T03:18:16;7.40;99.90
7708;DHT22;3896;48.758;8.888;2023-05-02T03:20:42;7.40;99.90
7708;DHT22;3896;48.758;8.888;2023-05-02T03:23:08;7.40;99.90
7708;DHT22;3896;48.758;8.888;2023-05-02T03:25:33;7.40;99.90
7708;DHT22;3896;48.758;8.888;2023-05-02T03:27:59;7.40;99.90
7708;DHT22;3896;48.758;8.888;2023-05-02T03:30:24;7.30;99.90
7708;DHT22;3896;48.758;8.888;2023-05-02T03:32:50;7.30;99.90
7708;DHT22;3896;48.758;8.888;2023-05-02T03:35:16;7.40;99.90
7708;DHT22;3896;48.758;8.888;2023-05-02T03:37:43;7.30;99.90
7708;DHT22;3896;48.758;8.888;2023-05-02T03:40:09;7.30;99.90
7708;DHT22;3896;48.758;8.888;2023-05-02T03:42:35;7.30;99.90
7708;DHT22;3896;48.758;8.888;2023-05-02T03:45:06;7.30;99.90
7708;DHT22;3896;48.758;8.888;2023-05-02T03:47:32;7.40;99.90
7708;DHT22;3896;48.758;8.888;2023-05-02T03:49:58;7.30;99.90
7708;DHT22;3896;48.758;8.888;2023-05-02T03:52:24;7.40;99.90
7708;DHT22;3896;48.758;8.888;2023-05-02T03:54:49;7.40;99.90
7708;DHT22;3896;48.758;8.888;2023-05-02T03:57:16;7.40;99.90
7708;DHT22;3896;48.758;8.888;2023-05-02T03:59:41;7.40;99.90
7708;DHT22;3896;48.758;8.888;2023-05-02T04:02:10;7.40;99.90
7708;DHT22;3896;48.758;8.888;2023-05-02T04:04:36;7.40;99.90
7708;DHT22;3896;48.758;8.888;2023-05-02T04:07:01;7.40;99.90
7708;DHT22;3896;48.758;8.888;2023-05-02T04:09:27;7.50;99.90
7708;DHT22;3896;48.758;8.888;2023-05-02T04:11:53;7.50;99.90
7708;DHT22;3896;48.758;8.888;2023-05-02T04:14:18;7.50;99.90
7708;DHT22;3896;48.758;8.888;2023-05-02T04:16:48;7.50;99.90
7708;DHT22;3896;48.758;8.888;2023-05-02T04:19:14;7.50;99.90
7708;DHT22;3896;48.758;8.888;2023-05-02T04:21:40;7.60;99.90
7708;DHT22;3896;48.758;8.888;2023-05-02T04:24:07;7.60;99.90
7708;DHT22;3896;48.758;8.888;2023-05-02T04:26:33;7.60;99.90
7708;DHT22;3896;48.758;8.888;2023-05-02T04:28:58;7.60;99.90
7708;DHT22;3896;48.758;8.888;2023-05-02T04:31:25;7.70;99.90
7708;DHT22;3896;48.758;8.888;2023-05-02T04:33:51;7.70;99.90
7708;DHT22;3896;48.758;8.888;2023-05-02T04:36:16;7.70;99.90
7708;DHT22;3896;48.758;8.888;2023-05-02T04:38:43;7.70;99.90
7708;DHT22;3896;48.758;8.888;2023-05-02T04:41:09;7.80;99.90
7708;DHT22;3896;48.758;8.888;2023-05-02T04:43:35;7.80;99.90
7708;DHT22;3896;48.758;8.888;2023-05-02T04:46:00;7.80;99.90
7708;DHT22;3896;48.758;8.888;2023-05-02T04:48:26;7.90;99.90
7708;DHT22;3896;48.758;8.888;2023-05-02T04:50:52;7.90;99.90
7708;DHT22;3896;48.758;8.888;2023-05-02T04:53:19;7.90;99.90
7708;DHT22;3896;48.758;8.888;2023-05-02T04:55:45;7.90;99.90
7708;DHT22;3896;48.758;8.888;2023-05-02T04:58:10;8.00;99.90
7708;DHT22;3896;48.758;8.888;2023-05-02T05:00:37;8.00;99.90
7708;DHT22;3896;48.758;8.888;2023-05-02T05:03:03;8.00;99.90
7708;DHT22;3896;48.758;8.888;2023-05-02T05:05:28;8.10;99.90
7708;DHT22;3896;48.758;8.888;2023-05-02T05:07:54;8.10;99.90
7708;DHT22;3896;48.758;8.888;2023-05-02T05:10:19;8.20;99.90
7708;DHT22;3896;48.758;8.888;2023-05-02T05:12:45;8.20;99.90
7708;DHT22;3896;48.758;8.888;2023-05-02T05:15:10;8.20;99.90
7708;DHT22;3896;48.758;8.888;2023-05-02T05:17:36;8.20;99.90
7708;DHT22;3896;48.758;8.888;2023-05-02T05:20:02;8.30;99.90
7708;DHT22;3896;48.758;8.888;2023-05-02T05:22:28;8.30;99.90
7708;DHT22;3896;48.758;8.888;2023-05-02T05:24:54;8.40;99.90
7708;DHT22;3896;48.758;8.888;2023-05-02T05:27:19;8.50;99.90
7708;DHT22;3896;48.758;8.888;2023-05-02T05:29:45;8.50;99.90
7708;DHT22;3896;48.758;8.888;2023-05-02T05:32:11;8.60;99.90
7708;DHT22;3896;48.758;8.888;2023-05-02T05:34:36;8.60;99.90
7708;DHT22;3896;48.758;8.888;2023-05-02T05:37:02;8.70;99.90
7708;DHT22;3896;48.758;8.888;2023-05-02T05:39:28;8.70;99.90
7708;DHT22;3896;48.758;8.888;2023-05-02T05:41:53;8.80;99.90
7708;DHT22;3896;48.758;8.888;2023-05-02T05:44:19;8.90;99.90
7708;DHT22;3896;48.758;8.888;2023-05-02T05:46:46;8.90;99.90
7708;DHT22;3896;48.758;8.888;2023-05-02T05:49:14;9.00;99.90
7708;DHT22;3896;48.758;8.888;2023-05-02T05:51:40;9.00;99.90
7708;DHT22;3896;48.758;8.888;2023-05-02T05:54:06;9.10;99.90
7708;DHT22;3896;48.758;8.888;2023-05-02T05:56:32;9.10;99.90
7708;DHT22;3896;48.758;8.888;2023-05-02T05:58:57;9.20;99.90
7708;DHT22;3896;48.758;8.888;2023-05-02T06:01:23;9.30;99.90
7708;DHT22;3896;48.758;8.888;2023-05-02T06:03:48;9.30;99.90
7708;DHT22;3896;48.758;8.888;2023-05-02T06:06:14;9.40;99.90
7708;DHT22;3896;48.758;8.888;2023-05-02T06:08:40;9.40;99.90
7708;DHT22;3896;48.758;8.888;2023-05-02T06:11:09;9.50;99.90
7708;DHT22;3896;48.758;8.888;2023-05-02T06:13:36;9.50;99.90
7708;DHT22;3896;48.758;8.888;2023-05-02T06:16:02;9.60;99.90
7708;DHT22;3896;48.758;8.888;2023-05-02T06:18:28;9.60;99.90
7708;DHT22;3896;48.758;8.888;2023-05-02T06:20:53;9.70;99.90
7708;DHT22;3896;48.758;8.888;2023-05-02T06:23:19;9.70;99.90
7708;DHT22;3896;48.758;8.888;2023-05-02T06:25:45;9.80;99.90
7708;DHT22;3896;48.758;8.888;2023-05-02T06:28:10;9.80;99.90
7708;DHT22;3896;48.758;8.888;2023-05-02T06:30:36;9.90;99.90
7708;DHT22;3896;48.758;8.888;2023-05-02T06:33:05;9.90;99.90
7708;DHT22;3896;48.758;8.888;2023-05-02T06:35:30;10.00;99.90
7708;DHT22;3896;48.758;8.888;2023-05-02T06:37:56;10.10;99.90
7708;DHT22;3896;48.758;8.888;2023-05-02T06:40:21;10.10;99.90
7708;DHT22;3896;48.758;8.888;2023-05-02T06:42:47;10.10;99.90
7708;DHT22;3896;48.758;8.888;2023-05-02T06:45:13;10.20;99.90
7708;DHT22;3896;48.758;8.888;2023-05-02T06:47:38;10.30;99.90
7708;DHT22;3896;48.758;8.888;2023-05-02T06:50:04;10.30;99.90
7708;DHT22;3896;48.758;8.888;2023-05-02T06:52:30;10.40;99.90
7708;DHT22;3896;48.758;8.888;2023-05-02T06:54:55;10.40;99.90
7708;DHT22;3896;48.758;8.888;2023-05-02T06:57:21;10.50;99.90
7708;DHT22;3896;48.758;8.888;2023-05-02T06:59:46;10.60;99.90
7708;DHT22;3896;48.758;8.888;2023-05-02T07:02:12;10.60;99.90
7708;DHT22;3896;48.758;8.888;2023-05-02T07:04:37;10.70;99.90
7708;DHT22;3896;48.758;8.888;2023-05-02T07:07:03;10.70;99.90
7708;DHT22;3896;48.758;8.888;2023-05-02T07:09:28;10.80;99.90
7708;DHT22;3896;48.758;8.888;2023-05-02T07:11:54;10.90;99.90
7708;DHT22;3896;48.758;8.888;2023-05-02T07:14:19;10.90;99.90
7708;DHT22;3896;48.758;8.888;2023-05-02T07:16:45;11.00;99.90
7708;DHT22;3896;48.758;8.888;2023-05-02T07:19:11;11.10;99.90
7708;DHT22;3896;48.758;8.888;2023-05-02T07:21:37;11.10;99.90
7708;DHT22;3896;48.758;8.888;2023-05-02T07:24:02;11.20;99.90
7708;DHT22;3896;48.758;8.888;2023-05-02T07:26:29;11.30;99.90
7708;DHT22;3896;48.758;8.888;2023-05-02T07:28:54;11.30;99.90
7708;DHT22;3896;48.758;8.888;2023-05-02T07:31:20;11.40;99.90
7708;DHT22;3896;48.758;8.888;2023-05-02T07:33:45;11.50;99.90
7708;DHT22;3896;48.758;8.888;2023-05-02T07:36:11;11.60;99.90
7708;DHT22;3896;48.758;8.888;2023-05-02T07:38:37;11.60;99.90
7708;DHT22;3896;48.758;8.888;2023-05-02T07:41:02;11.80;99.90
7708;DHT22;3896;48.758;8.888;2023-05-02T07:43:28;11.80;99.90
7708;DHT22;3896;48.758;8.888;2023-05-02T07:45:53;11.90;99.90
7708;DHT22;3896;48.758;8.888;2023-05-02T07:48:19;12.00;99.90
7708;DHT22;3896;48.758;8.888;2023-05-02T07:50:45;12.10;99.90
7708;DHT22;3896;48.758;8.888;2023-05-02T07:53:11;12.10;99.90
7708;DHT22;3896;48.758;8.888;2023-05-02T07:55:36;12.20;99.90
7708;DHT22;3896;48.758;8.888;2023-05-02T07:58:02;12.30;99.90
7708;DHT22;3896;48.758;8.888;2023-05-02T08:00:28;12.30;99.90
7708;DHT22;3896;48.758;8.888;2023-05-02T08:02:54;12.40;99.90
7708;DHT22;3896;48.758;8.888;2023-05-02T08:05:20;12.50;99.90
7708;DHT22;3896;48.758;8.888;2023-05-02T08:07:46;12.60;99.90
7708;DHT22;3896;48.758;8.888;2023-05-02T08:10:11;12.70;99.90
7708;DHT22;3896;48.758;8.888;2023-05-02T08:12:38;12.70;99.90
7708;DHT22;3896;48.758;8.888;2023-05-02T08:15:09;12.80;99.90
7708;DHT22;3896;48.758;8.888;2023-05-02T08:17:35;12.80;99.90
7708;DHT22;3896;48.758;8.888;2023-05-02T08:20:01;12.90;99.90
7708;DHT22;3896;48.758;8.888;2023-05-02T08:22:27;13.00;99.90
7708;DHT22;3896;48.758;8.888;2023-05-02T08:24:52;13.00;99.90
7708;DHT22;3896;48.758;8.888;2023-05-02T08:27:18;13.10;99.90
7708;DHT22;3896;48.758;8.888;2023-05-02T08:29:44;13.20;99.90
7708;DHT22;3896;48.758;8.888;2023-05-02T08:32:10;13.30;99.90
7708;DHT22;3896;48.758;8.888;2023-05-02T08:34:35;13.30;99.90
7708;DHT22;3896;48.758;8.888;2023-05-02T08:37:01;13.40;99.90
7708;DHT22;3896;48.758;8.888;2023-05-02T08:39:26;13.50;99.90
7708;DHT22;3896;48.758;8.888;2023-05-02T08:41:52;13.50;99.90
7708;DHT22;3896;48.758;8.888;2023-05-02T08:44:18;13.60;99.90
7708;DHT22;3896;48.758;8.888;2023-05-02T08:46:44;13.70;99.90
7708;DHT22;3896;48.758;8.888;2023-05-02T08:49:10;13.70;99.90
7708;DHT22;3896;48.758;8.888;2023-05-02T08:51:38;13.80;99.90
7708;DHT22;3896;48.758;8.888;2023-05-02T08:54:05;13.80;99.90
7708;DHT22;3896;48.758;8.888;2023-05-02T08:56:34;13.90;99.90
7708;DHT22;3896;48.758;8.888;2023-05-02T08:58:59;14.00;99.90
7708;DHT22;3896;48.758;8.888;2023-05-02T09:01:29;14.10;99.90
7708;DHT22;3896;48.758;8.888;2023-05-02T09:03:56;14.10;99.90
7708;DHT22;3896;48.758;8.888;2023-05-02T09:06:25;14.20;99.90
7708;DHT22;3896;48.758;8.888;2023-05-02T09:08:51;14.30;99.90
7708;DHT22;3896;48.758;8.888;2023-05-02T09:11:18;14.40;99.90
7708;DHT22;3896;48.758;8.888;2023-05-02T09:13:45;14.40;99.90
7708;DHT22;3896;48.758;8.888;2023-05-02T09:16:14;14.50;99.90
7708;DHT22;3896;48.758;8.888;2023-05-02T09:18:48;14.60;99.90
7708;DHT22;3896;48.758;8.888;2023-05-02T09:21:22;14.70;99.90
7708;DHT22;3896;48.758;8.888;2023-05-02T09:23:54;14.80;99.90
7708;DHT22;3896;48.758;8.888;2023-05-02T09:26:22;14.90;99.90
7708;DHT22;3896;48.758;8.888;2023-05-02T09:28:52;15.00;99.90
7708;DHT22;3896;48.758;8.888;2023-05-02T09:33:45;15.20;99.90
7708;DHT22;3896;48.758;8.888;2023-05-02T09:36:13;15.30;99.90
7708;DHT22;3896;48.758;8.888;2023-05-02T09:38:43;15.40;99.90
7708;DHT22;3896;48.758;8.888;2023-05-02T09:41:09;15.50;99.90
7708;DHT22;3896;48.758;8.888;2023-05-02T09:43:35;15.50;99.90
7708;DHT22;3896;48.758;8.888;2023-05-02T09:48:32;15.70;99.90
7708;DHT22;3896;48.758;8.888;2023-05-02T09:50:58;15.80;99.90
7708;DHT22;3896;48.758;8.888;2023-05-02T09:53:25;15.80;99.90
7708;DHT22;3896;48.758;8.888;2023-05-02T09:56:04;15.90;99.90
7708;DHT22;3896;48.758;8.888;2023-05-02T09:58:30;15.90;99.40
7708;DHT22;3896;48.758;8.888;2023-05-02T10:00:56;16.00;99.30
7708;DHT22;3896;48.758;8.888;2023-05-02T10:03:24;16.00;98.80
7708;DHT22;3896;48.758;8.888;2023-05-02T10:05:50;16.10;97.70
7708;DHT22;3896;48.758;8.888;2023-05-02T10:08:19;16.20;97.00
7708;DHT22;3896;48.758;8.888;2023-05-02T10:10:53;16.40;96.40
7708;DHT22;3896;48.758;8.888;2023-05-02T10:13:21;16.50;95.90
7708;DHT22;3896;48.758;8.888;2023-05-02T10:15:49;16.60;95.10
7708;DHT22;3896;48.758;8.888;2023-05-02T10:18:32;16.80;94.20
7708;DHT22;3896;48.758;8.888;2023-05-02T10:21:07;16.80;93.20
7708;DHT22;3896;48.758;8.888;2023-05-02T10:23:33;16.90;92.60
7708;DHT22;3896;48.758;8.888;2023-05-02T10:25:59;17.00;92.30
7708;DHT22;3896;48.758;8.888;2023-05-02T10:28:27;17.10;92.50
7708;DHT22;3896;48.758;8.888;2023-05-02T10:30:53;17.20;92.00
7708;DHT22;3896;48.758;8.888;2023-05-02T10:33:20;17.30;91.40
7708;DHT22;3896;48.758;8.888;2023-05-02T10:35:47;17.50;90.70
7708;DHT22;3896;48.758;8.888;2023-05-02T10:38:20;17.50;89.40
7708;DHT22;3896;48.758;8.888;2023-05-02T10:41:08;17.60;88.80
7708;DHT22;3896;48.758;8.888;2023-05-02T10:43:35;17.70;88.90
7708;DHT22;3896;48.758;8.888;2023-05-02T10:46:02;17.80;86.90
7708;DHT22;3896;48.758;8.888;2023-05-02T10:48:28;17.90;83.90
7708;DHT22;3896;48.758;8.888;2023-05-02T10:50:56;18.00;82.10
7708;DHT22;3896;48.758;8.888;2023-05-02T10:58:47;18.50;82.80
7708;DHT22;3896;48.758;8.888;2023-05-02T11:04:04;18.90;80.50
7708;DHT22;3896;48.758;8.888;2023-05-02T11:06:32;19.00;78.00
7708;DHT22;3896;48.758;8.888;2023-05-02T11:11:46;19.20;77.30
7708;DHT22;3896;48.758;8.888;2023-05-02T11:17:04;19.20;75.20
7708;DHT22;3896;48.758;8.888;2023-05-02T11:24:49;19.50;74.60
7708;DHT22;3896;48.758;8.888;2023-05-02T11:30:08;19.70;73.80
7708;DHT22;3896;48.758;8.888;2023-05-02T11:35:17;20.00;72.10
7708;DHT22;3896;48.758;8.888;2023-05-02T11:37:53;20.20;71.80
7708;DHT22;3896;48.758;8.888;2023-05-02T11:40:22;20.40;69.90
7708;DHT22;3896;48.758;8.888;2023-05-02T11:42:48;20.60;68.90
7708;DHT22;3896;48.758;8.888;2023-05-02T11:45:14;20.70;68.80
7708;DHT22;3896;48.758;8.888;2023-05-02T11:47:40;20.80;69.00
7708;DHT22;3896;48.758;8.888;2023-05-02T11:50:07;21.00;69.40
7708;DHT22;3896;48.758;8.888;2023-05-02T11:52:38;21.00;67.10
7708;DHT22;3896;48.758;8.888;2023-05-02T11:55:14;21.10;67.00
7708;DHT22;3896;48.758;8.888;2023-05-02T11:57:40;21.10;66.60
7708;DHT22;3896;48.758;8.888;2023-05-02T12:00:07;21.10;66.00
7708;DHT22;3896;48.758;8.888;2023-05-02T12:02:43;21.10;65.30
7708;DHT22;3896;48.758;8.888;2023-05-02T12:05:13;21.10;65.40
7708;DHT22;3896;48.758;8.888;2023-05-02T12:07:43;21.20;65.10
7708;DHT22;3896;48.758;8.888;2023-05-02T12:10:11;21.20;64.70
7708;DHT22;3896;48.758;8.888;2023-05-02T12:12:37;21.20;66.00
7708;DHT22;3896;48.758;8.888;2023-05-02T12:15:08;21.30;64.40
7708;DHT22;3896;48.758;8.888;2023-05-02T12:17:38;21.30;63.20
7708;DHT22;3896;48.758;8.888;2023-05-02T12:20:07;21.40;62.90
7708;DHT22;3896;48.758;8.888;2023-05-02T12:22:33;21.60;61.10
7708;DHT22;3896;48.758;8.888;2023-05-02T12:24:59;21.70;60.20
7708;DHT22;3896;48.758;8.888;2023-05-02T12:27:25;21.80;60.70
7708;DHT22;3896;48.758;8.888;2023-05-02T12:29:52;21.90;60.70
7708;DHT22;3896;48.758;8.888;2023-05-02T12:32:31;22.10;60.10
7708;DHT22;3896;48.758;8.888;2023-05-02T12:35:01;22.20;60.10
7708;DHT22;3896;48.758;8.888;2023-05-02T12:37:27;22.30;59.60
7708;DHT22;3896;48.758;8.888;2023-05-02T12:39:53;22.50;59.20
7708;DHT22;3896;48.758;8.888;2023-05-02T12:42:24;22.60;59.00
7708;DHT22;3896;48.758;8.888;2023-05-02T12:44:51;22.80;59.20
7708;DHT22;3896;48.758;8.888;2023-05-02T12:47:18;23.00;58.30
7708;DHT22;3896;48.758;8.888;2023-05-02T12:49:53;23.10;57.10
7708;DHT22;3896;48.758;8.888;2023-05-02T12:52:20;23.30;56.80
7708;DHT22;3896;48.758;8.888;2023-05-02T12:54:46;23.40;56.10
7708;DHT22;3896;48.758;8.888;2023-05-02T12:57:25;23.60;55.30
7708;DHT22;3896;48.758;8.888;2023-05-02T12:59:51;23.70;54.70
7708;DHT22;3896;48.758;8.888;2023-05-02T13:02:19;23.80;54.30
7708;DHT22;3896;48.758;8.888;2023-05-02T13:04:45;23.90;54.60
7708;DHT22;3896;48.758;8.888;2023-05-02T13:07:10;23.90;54.20
7708;DHT22;3896;48.758;8.888;2023-05-02T13:09:36;24.00;54.00
7708;DHT22;3896;48.758;8.888;2023-05-02T13:12:02;24.00;54.00
7708;DHT22;3896;48.758;8.888;2023-05-02T13:14:28;23.90;54.00
7708;DHT22;3896;48.758;8.888;2023-05-02T13:16:54;24.00;54.10
7708;DHT22;3896;48.758;8.888;2023-05-02T13:19:22;24.00;54.20
7708;DHT22;3896;48.758;8.888;2023-05-02T13:21:51;24.00;53.70
7708;DHT22;3896;48.758;8.888;2023-05-02T13:24:16;24.10;53.10
7708;DHT22;3896;48.758;8.888;2023-05-02T13:26:42;24.20;53.70
7708;DHT22;3896;48.758;8.888;2023-05-02T13:29:08;24.30;53.60
7708;DHT22;3896;48.758;8.888;2023-05-02T13:31:37;24.40;52.60
7708;DHT22;3896;48.758;8.888;2023-05-02T13:34:03;24.50;52.70
7708;DHT22;3896;48.758;8.888;2023-05-02T13:36:29;24.60;52.50
7708;DHT22;3896;48.758;8.888;2023-05-02T13:38:55;24.70;53.00
7708;DHT22;3896;48.758;8.888;2023-05-02T13:41:20;24.70;52.30
7708;DHT22;3896;48.758;8.888;2023-05-02T13:43:49;24.90;51.90
7708;DHT22;3896;48.758;8.888;2023-05-02T13:46:14;25.00;51.60
7708;DHT22;3896;48.758;8.888;2023-05-02T13:48:40;25.10;51.40
7708;DHT22;3896;48.758;8.888;2023-05-02T13:51:06;25.30;51.10
7708;DHT22;3896;48.758;8.888;2023-05-02T13:53:32;25.40;50.40
7708;DHT22;3896;48.758;8.888;2023-05-02T13:55:57;25.50;49.60
7708;DHT22;3896;48.758;8.888;2023-05-02T13:58:23;25.70;48.90
7708;DHT22;3896;48.758;8.888;2023-05-02T14:00:51;25.80;48.60
7708;DHT22;3896;48.758;8.888;2023-05-02T14:03:17;25.80;47.10
7708;DHT22;3896;48.758;8.888;2023-05-02T14:05:42;25.90;46.70
7708;DHT22;3896;48.758;8.888;2023-05-02T14:08:11;26.00;46.70
7708;DHT22;3896;48.758;8.888;2023-05-02T14:10:37;26.10;46.40
7708;DHT22;3896;48.758;8.888;2023-05-02T14:13:03;26.20;46.30
7708;DHT22;3896;48.758;8.888;2023-05-02T14:15:29;26.40;46.20
7708;DHT22;3896;48.758;8.888;2023-05-02T14:20:33;26.60;44.90
7708;DHT22;3896;48.758;8.888;2023-05-02T14:22:58;26.70;44.10
7708;DHT22;3896;48.758;8.888;2023-05-02T14:25:24;26.60;43.70
7708;DHT22;3896;48.758;8.888;2023-05-02T14:27:51;26.60;44.10
7708;DHT22;3896;48.758;8.888;2023-05-02T14:30:17;26.60;43.90
7708;DHT22;3896;48.758;8.888;2023-05-02T14:32:42;26.50;44.20
7708;DHT22;3896;48.758;8.888;2023-05-02T14:35:08;26.30;44.40
7708;DHT22;3896;48.758;8.888;2023-05-02T14:37:33;26.20;45.10
7708;DHT22;3896;48.758;8.888;2023-05-02T14:39:59;26.20;45.70
7708;DHT22;3896;48.758;8.888;2023-05-02T14:42:25;26.20;45.20
7708;DHT22;3896;48.758;8.888;2023-05-02T14:44:50;26.20;44.40
7708;DHT22;3896;48.758;8.888;2023-05-02T14:47:17;26.20;43.60
7708;DHT22;3896;48.758;8.888;2023-05-02T14:49:42;26.20;43.70
7708;DHT22;3896;48.758;8.888;2023-05-02T14:52:08;26.30;43.70
7708;DHT22;3896;48.758;8.888;2023-05-02T14:54:34;26.40;43.90
7708;DHT22;3896;48.758;8.888;2023-05-02T14:57:00;26.40;43.50
7708;DHT22;3896;48.758;8.888;2023-05-02T14:59:28;26.40;43.30
7708;DHT22;3896;48.758;8.888;2023-05-02T15:01:54;26.40;43.60
7708;DHT22;3896;48.758;8.888;2023-05-02T15:04:19;26.40;43.60
7708;DHT22;3896;48.758;8.888;2023-05-02T15:06:45;26.40;43.60
7708;DHT22;3896;48.758;8.888;2023-05-02T15:09:12;26.40;43.10
7708;DHT22;3896;48.758;8.888;2023-05-02T15:11:38;26.40;43.20
7708;DHT22;3896;48.758;8.888;2023-05-02T15:14:04;26.50;43.20
7708;DHT22;3896;48.758;8.888;2023-05-02T15:16:29;26.50;43.00
7708;DHT22;3896;48.758;8.888;2023-05-02T15:18:55;26.50;42.60
7708;DHT22;3896;48.758;8.888;2023-05-02T15:21:21;26.40;42.50
7708;DHT22;3896;48.758;8.888;2023-05-02T15:23:47;26.30;42.80
7708;DHT22;3896;48.758;8.888;2023-05-02T15:26:12;26.30;42.70
7708;DHT22;3896;48.758;8.888;2023-05-02T15:28:38;26.20;42.30
7708;DHT22;3896;48.758;8.888;2023-05-02T15:31:04;26.10;42.00
7708;DHT22;3896;48.758;8.888;2023-05-02T15:33:29;26.00;41.70
7708;DHT22;3896;48.758;8.888;2023-05-02T15:35:56;25.80;42.00
7708;DHT22;3896;48.758;8.888;2023-05-02T15:38:22;25.70;41.40
7708;DHT22;3896;48.758;8.888;2023-05-02T15:40:58;25.50;41.50
7708;DHT22;3896;48.758;8.888;2023-05-02T15:43:25;25.30;41.80
7708;DHT22;3896;48.758;8.888;2023-05-02T15:45:55;25.20;42.10
7708;DHT22;3896;48.758;8.888;2023-05-02T15:48:21;25.00;41.80
7708;DHT22;3896;48.758;8.888;2023-05-02T15:50:50;24.80;42.20
7708;DHT22;3896;48.758;8.888;2023-05-02T15:53:17;24.70;42.40
7708;DHT22;3896;48.758;8.888;2023-05-02T15:55:43;24.50;42.30
7708;DHT22;3896;48.758;8.888;2023-05-02T15:58:14;24.30;42.70
7708;DHT22;3896;48.758;8.888;2023-05-02T16:00:41;24.20;42.80
7708;DHT22;3896;48.758;8.888;2023-05-02T16:03:06;24.10;42.80
7708;DHT22;3896;48.758;8.888;2023-05-02T16:05:33;24.00;42.90
7708;DHT22;3896;48.758;8.888;2023-05-02T16:07:59;24.00;43.10
7708;DHT22;3896;48.758;8.888;2023-05-02T16:10:24;23.80;42.60
7708;DHT22;3896;48.758;8.888;2023-05-02T16:12:50;23.70;42.70
7708;DHT22;3896;48.758;8.888;2023-05-02T16:15:16;23.60;42.80
7708;DHT22;3896;48.758;8.888;2023-05-02T16:17:42;23.50;43.00
7708;DHT22;3896;48.758;8.888;2023-05-02T16:20:08;23.40;43.60
7708;DHT22;3896;48.758;8.888;2023-05-02T16:22:34;23.30;43.70
7708;DHT22;3896;48.758;8.888;2023-05-02T16:24:59;23.20;43.90
7708;DHT22;3896;48.758;8.888;2023-05-02T16:27:25;23.10;44.00
7708;DHT22;3896;48.758;8.888;2023-05-02T16:29:51;23.00;44.60
7708;DHT22;3896;48.758;8.888;2023-05-02T16:32:16;22.90;44.40
7708;DHT22;3896;48.758;8.888;2023-05-02T16:34:42;22.80;44.50
7708;DHT22;3896;48.758;8.888;2023-05-02T16:37:07;22.70;44.80
7708;DHT22;3896;48.758;8.888;2023-05-02T16:39:34;22.50;44.90
7708;DHT22;3896;48.758;8.888;2023-05-02T16:42:00;22.40;45.20
7708;DHT22;3896;48.758;8.888;2023-05-02T16:44:26;22.30;45.50
7708;DHT22;3896;48.758;8.888;2023-05-02T16:46:51;22.30;45.60
7708;DHT22;3896;48.758;8.888;2023-05-02T16:49:17;22.20;45.50
7708;DHT22;3896;48.758;8.888;2023-05-02T16:51:43;22.20;45.70
7708;DHT22;3896;48.758;8.888;2023-05-02T16:54:08;22.10;46.00
7708;DHT22;3896;48.758;8.888;2023-05-02T16:56:35;22.00;46.10